sensor_id;sensor_type;location;lat;lon;timestamp;temperature;humidity
2158;DHT22;41972;48.774;9.282;2023-04-03T00:01:09;3.10;99.90
2158;DHT22;41972;48.774;9.282;2023-04-03T00:03:34;3.20;99.90
2158;DHT22;41972;48.774;9.282;2023-04-03T00:06:01;3.10;99.90
2158;DHT22;41972;48.774;9.282;2023-04-03T00:08:26;3.10;99.90
2158;DHT22;41972;48.774;9.282;2023-04-03T00:10:52;3.10;99.90
2158;DHT22;41972;48.774;9.282;2023-04-03T00:13:18;3.10;99.90
2158;DHT22;41972;48.774;9.282;2023-04-03T00:15:44;3.00;99.90
2158;DHT22;41972;48.774;9.282;2023-04-03T00:18:10;2.90;99.90
2158;DHT22;41972;48.774;9.282;2023-04-03T00:20:35;3.00;99.90
2158;DHT22;41972;48.774;9.282;2023-04-03T00:23:02;3.00;99.90
2158;DHT22;41972;48.774;9.282;2023-04-03T00:25:28;3.00;99.90
2158;DHT22;41972;48.774;9.282;2023-04-03T00:27:54;3.00;99.90
2158;DHT22;41972;48.774;9.282;2023-04-03T00:30:21;3.00;99.90
2158;DHT22;41972;48.774;9.282;2023-04-03T00:32:51;3.00;99.90
2158;DHT22;41972;48.774;9.282;2023-04-03T00:35:18;3.00;99.90
2158;DHT22;41972;48.774;9.282;2023-04-03T00:37:44;3.00;99.90
2158;DHT22;41972;48.774;9.282;2023-04-03T00:40:11;3.10;99.90
2158;DHT22;41972;48.774;9.282;2023-04-03T00:42:37;3.00;99.90
2158;DHT22;41972;48.774;9.282;2023-04-03T00:47:30;3.00;99.90
2158;DHT22;41972;48.774;9.282;2023-04-03T00:49:57;3.00;99.90
2158;DHT22;41972;48.774;9.282;2023-04-03T00:52:27;3.00;99.90
2158;DHT22;41972;48.774;9.282;2023-04-03T00:54:56;3.10;99.90
2158;DHT22;41972;48.774;9.282;2023-04-03T00:57:23;3.00;99.90
2158;DHT22;41972;48.774;9.282;2023-04-03T00:59:51;3.10;99.90
2158;DHT22;41972;48.774;9.282;2023-04-03T01:02:20;3.10;99.90
2158;DHT22;41972;48.774;9.282;2023-04-03T01:04:45;3.00;99.90
2158;DHT22;41972;48.774;9.282;2023-04-03T01:07:18;3.00;99.90
2158;DHT22;41972;48.774;9.282;2023-04-03T01:09:47;3.10;99.90
2158;DHT22;41972;48.774;9.282;2023-04-03T01:12:22;3.00;99.90
2158;DHT22;41972;48.774;9.282;2023-04-03T01:14:53;3.00;99.90
2158;DHT22;41972;48.774;9.282;2023-04-03T01:17:32;3.00;99.90
2158;DHT22;41972;48.774;9.282;2023-04-03T01:25:28;3.00;99.90
2158;DHT22;41972;48.774;9.282;2023-04-03T01:27:54;3.00;99.90
2158;DHT22;41972;48.774;9.282;2023-04-03T01:30:21;2.90;99.90
2158;DHT22;41972;48.774;9.282;2023-04-03T01:32:48;3.00;99.90
2158;DHT22;41972;48.774;9.282;2023-04-03T01:35:14;3.00;99.90
2158;DHT22;41972;48.774;9.282;2023-04-03T01:37:40;2.90;99.90
2158;DHT22;41972;48.774;9.282;2023-04-03T01:40:06;2.80;99.90
2158;DHT22;41972;48.774;9.282;2023-04-03T01:42:32;2.70;99.90
2158;DHT22;41972;48.774;9.282;2023-04-03T01:44:57;2.90;99.90
2158;DHT22;41972;48.774;9.282;2023-04-03T01:47:23;3.00;99.90
2158;DHT22;41972;48.774;9.282;2023-04-03T01:49:49;2.90;99.90
2158;DHT22;41972;48.774;9.282;2023-04-03T01:52:14;3.00;99.90
2158;DHT22;41972;48.774;9.282;2023-04-03T01:54:40;2.90;99.90
2158;DHT22;41972;48.774;9.282;2023-04-03T01:57:05;2.90;99.90
2158;DHT22;41972;48.774;9.282;2023-04-03T01:59:31;2.90;99.90
2158;DHT22;41972;48.774;9.282;2023-04-03T02:01:56;3.00;99.90
2158;DHT22;41972;48.774;9.282;2023-04-03T02:04:22;3.10;99.90
2158;DHT22;41972;48.774;9.282;2023-04-03T02:06:48;3.00;99.90
2158;DHT22;41972;48.774;9.282;2023-04-03T02:09:13;3.00;99.90
2158;DHT22;41972;48.774;9.282;2023-04-03T02:11:39;3.00;99.90
2158;DHT22;41972;48.774;9.282;2023-04-03T02:14:05;3.10;99.90
2158;DHT22;41972;48.774;9.282;2023-04-03T02:16:30;3.10;99.90
2158;DHT22;41972;48.774;9.282;2023-04-03T02:18:56;3.10;99.90
2158;DHT22;41972;48.774;9.282;2023-04-03T02:21:22;3.00;99.90
2158;DHT22;41972;48.774;9.282;2023-04-03T02:23:47;3.00;99.90
2158;DHT22;41972;48.774;9.282;2023-04-03T02:26:14;3.00;99.90
2158;DHT22;41972;48.774;9.282;2023-04-03T02:28:40;3.00;99.90
2158;DHT22;41972;48.774;9.282;2023-04-03T02:31:07;3.00;99.90
2158;DHT22;41972;48.774;9.282;2023-04-03T02:33:34;3.00;99.90
2158;DHT22;41972;48.774;9.282;2023-04-03T02:36:03;3.00;99.90
2158;DHT22;41972;48.774;9.282;2023-04-03T02:38:29;3.00;99.90
2158;DHT22;41972;48.774;9.282;2023-04-03T02:41:00;3.00;99.90
2158;DHT22;41972;48.774;9.282;2023-04-03T02:46:48;3.00;99.90
2158;DHT22;41972;48.774;9.282;2023-04-03T02:49:14;3.00;99.90
2158;DHT22;41972;48.774;9.282;2023-04-03T02:51:39;3.10;99.90
2158;DHT22;41972;48.774;9.282;2023-04-03T02:54:05;3.00;99.90
2158;DHT22;41972;48.774;9.282;2023-04-03T02:56:30;3.00;99.90
2158;DHT22;41972;48.774;9.282;2023-04-03T02:58:56;3.10;99.90
2158;DHT22;41972;48.774;9.282;2023-04-03T03:01:22;3.00;99.90
2158;DHT22;41972;48.774;9.282;2023-04-03T03:03:47;3.00;99.90
2158;DHT22;41972;48.774;9.282;2023-04-03T03:06:15;3.00;99.90
2158;DHT22;41972;48.774;9.282;2023-04-03T03:08:42;3.00;99.90
2158;DHT22;41972;48.774;9.282;2023-04-03T03:11:08;3.00;99.90
2158;DHT22;41972;48.774;9.282;2023-04-03T03:13:34;3.00;99.90
2158;DHT22;41972;48.774;9.282;2023-04-03T03:16:00;3.00;99.90
2158;DHT22;41972;48.774;9.282;2023-04-03T03:18:28;3.10;99.90
2158;DHT22;41972;48.774;9.282;2023-04-03T03:20:55;3.10;99.90
2158;DHT22;41972;48.774;9.282;2023-04-03T03:23:24;3.00;99.90
2158;DHT22;41972;48.774;9.282;2023-04-03T03:26:05;3.00;99.90
2158;DHT22;41972;48.774;9.282;2023-04-03T03:28:31;3.10;99.90
2158;DHT22;41972;48.774;9.282;2023-04-03T03:30:58;3.00;99.90
2158;DHT22;41972;48.774;9.282;2023-04-03T03:33:24;3.00;99.90
2158;DHT22;41972;48.774;9.282;2023-04-03T03:35:51;3.10;99.90
2158;DHT22;41972;48.774;9.282;2023-04-03T03:38:16;3.00;99.90
2158;DHT22;41972;48.774;9.282;2023-04-03T03:40:42;3.00;99.90
2158;DHT22;41972;48.774;9.282;2023-04-03T03:43:08;3.10;99.90
2158;DHT22;41972;48.774;9.282;2023-04-03T03:45:34;3.10;99.90
2158;DHT22;41972;48.774;9.282;2023-04-03T03:48:00;3.00;99.90
2158;DHT22;41972;48.774;9.282;2023-04-03T03:50:25;3.00;99.90
2158;DHT22;41972;48.774;9.282;2023-04-03T03:52:51;3.10;99.90
2158;DHT22;41972;48.774;9.282;2023-04-03T03:55:17;3.10;99.90
2158;DHT22;41972;48.774;9.282;2023-04-03T03:57:42;3.10;99.90
2158;DHT22;41972;48.774;9.282;2023-04-03T04:00:09;3.10;99.90
2158;DHT22;41972;48.774;9.282;2023-04-03T04:02:35;3.10;99.90
2158;DHT22;41972;48.774;9.282;2023-04-03T04:05:00;3.10;99.90
2158;DHT22;41972;48.774;9.282;2023-04-03T04:07:26;3.20;99.90
2158;DHT22;41972;48.774;9.282;2023-04-03T04:09:53;3.20;99.90
2158;DHT22;41972;48.774;9.282;2023-04-03T04:12:19;3.10;99.90
2158;DHT22;41972;48.774;9.282;2023-04-03T04:14:45;3.10;99.90
2158;DHT22;41972;48.774;9.282;2023-04-03T04:17:12;3.10;99.90
2158;DHT22;41972;48.774;9.282;2023-04-03T04:19:39;3.20;99.90
2158;DHT22;41972;48.774;9.282;2023-04-03T04:22:05;3.20;99.90
2158;DHT22;41972;48.774;9.282;2023-04-03T04:24:30;3.20;99.90
2158;DHT22;41972;48.774;9.282;2023-04-03T04:26:56;3.20;99.90
2158;DHT22;41972;48.774;9.282;2023-04-03T04:29:21;3.20;99.90
2158;DHT22;41972;48.774;9.282;2023-04-03T04:31:47;3.20;99.90
2158;DHT22;41972;48.774;9.282;2023-04-03T04:34:12;3.20;99.90
2158;DHT22;41972;48.774;9.282;2023-04-03T04:36:38;3.20;99.90
2158;DHT22;41972;48.774;9.282;2023-04-03T04:39:04;3.20;99.90
2158;DHT22;41972;48.774;9.282;2023-04-03T04:41:30;3.20;99.90
2158;DHT22;41972;48.774;9.282;2023-04-03T04:43:56;3.20;99.90
2158;DHT22;41972;48.774;9.282;2023-04-03T04:46:22;3.30;99.90
2158;DHT22;41972;48.774;9.282;2023-04-03T04:48:48;3.20;99.90
2158;DHT22;41972;48.774;9.282;2023-04-03T04:51:14;3.20;99.90
2158;DHT22;41972;48.774;9.282;2023-04-03T04:53:40;3.20;99.90
2158;DHT22;41972;48.774;9.282;2023-04-03T04:56:06;3.00;99.90
2158;DHT22;41972;48.774;9.282;2023-04-03T04:58:31;2.90;99.90
2158;DHT22;41972;48.774;9.282;2023-04-03T05:01:01;3.00;99.90
2158;DHT22;41972;48.774;9.282;2023-04-03T05:03:27;3.00;99.90
2158;DHT22;41972;48.774;9.282;2023-04-03T05:05:53;3.10;99.90
2158;DHT22;41972;48.774;9.282;2023-04-03T05:08:18;3.20;99.90
2158;DHT22;41972;48.774;9.282;2023-04-03T05:10:45;3.30;99.90
2158;DHT22;41972;48.774;9.282;2023-04-03T05:13:11;3.20;99.90
2158;DHT22;41972;48.774;9.282;2023-04-03T05:15:37;3.20;99.90
2158;DHT22;41972;48.774;9.282;2023-04-03T05:18:02;3.10;99.90
2158;DHT22;41972;48.774;9.282;2023-04-03T05:20:28;3.30;99.90
2158;DHT22;41972;48.774;9.282;2023-04-03T05:22:54;3.00;99.90
2158;DHT22;41972;48.774;9.282;2023-04-03T05:25:19;3.10;99.90
2158;DHT22;41972;48.774;9.282;2023-04-03T05:27:45;3.20;99.90
2158;DHT22;41972;48.774;9.282;2023-04-03T05:30:11;3.30;99.90
2158;DHT22;41972;48.774;9.282;2023-04-03T05:32:37;3.40;99.90
2158;DHT22;41972;48.774;9.282;2023-04-03T05:35:03;3.40;99.90
2158;DHT22;41972;48.774;9.282;2023-04-03T05:37:29;3.40;99.90
2158;DHT22;41972;48.774;9.282;2023-04-03T05:39:55;3.50;99.90
2158;DHT22;41972;48.774;9.282;2023-04-03T05:42:20;3.50;99.90
2158;DHT22;41972;48.774;9.282;2023-04-03T05:44:46;3.60;99.90
2158;DHT22;41972;48.774;9.282;2023-04-03T05:47:12;3.70;99.90
2158;DHT22;41972;48.774;9.282;2023-04-03T05:49:38;3.70;99.90
2158;DHT22;41972;48.774;9.282;2023-04-03T05:52:11;3.60;99.90
2158;DHT22;41972;48.774;9.282;2023-04-03T05:54:43;3.60;99.90
2158;DHT22;41972;48.774;9.282;2023-04-03T05:57:09;3.40;99.90
2158;DHT22;41972;48.774;9.282;2023-04-03T05:59:35;3.40;99.90
2158;DHT22;41972;48.774;9.282;2023-04-03T06:02:00;3.40;99.90
2158;DHT22;41972;48.774;9.282;2023-04-03T06:04:26;3.60;99.90
2158;DHT22;41972;48.774;9.282;2023-04-03T06:06:56;3.70;99.90
2158;DHT22;41972;48.774;9.282;2023-04-03T06:09:26;3.80;99.90
2158;DHT22;41972;48.774;9.282;2023-04-03T06:11:54;4.10;99.90
2158;DHT22;41972;48.774;9.282;2023-04-03T06:14:20;4.40;99.90
2158;DHT22;41972;48.774;9.282;2023-04-03T06:16:45;4.30;99.90
2158;DHT22;41972;48.774;9.282;2023-04-03T06:19:12;4.10;99.90
2158;DHT22;41972;48.774;9.282;2023-04-03T06:21:37;4.30;99.90
2158;DHT22;41972;48.774;9.282;2023-04-03T06:24:07;3.90;99.90
2158;DHT22;41972;48.774;9.282;2023-04-03T06:26:34;4.10;99.90
2158;DHT22;41972;48.774;9.282;2023-04-03T06:28:59;3.90;99.90
2158;DHT22;41972;48.774;9.282;2023-04-03T06:31:25;3.80;99.90
2158;DHT22;41972;48.774;9.282;2023-04-03T06:33:51;3.40;99.90
2158;DHT22;41972;48.774;9.282;2023-04-03T06:36:19;3.70;99.90
2158;DHT22;41972;48.774;9.282;2023-04-03T06:38:46;4.00;99.90
2158;DHT22;41972;48.774;9.282;2023-04-03T06:41:12;4.20;99.90
2158;DHT22;41972;48.774;9.282;2023-04-03T06:43:37;4.10;99.90
2158;DHT22;41972;48.774;9.282;2023-04-03T06:46:03;4.20;99.90
2158;DHT22;41972;48.774;9.282;2023-04-03T06:48:29;3.80;99.90
2158;DHT22;41972;48.774;9.282;2023-04-03T06:50:55;3.80;99.90
2158;DHT22;41972;48.774;9.282;2023-04-03T06:53:20;3.80;99.90
2158;DHT22;41972;48.774;9.282;2023-04-03T06:55:47;4.00;99.90
2158;DHT22;41972;48.774;9.282;2023-04-03T06:58:12;4.00;99.90
2158;DHT22;41972;48.774;9.282;2023-04-03T07:00:39;4.00;99.90
2158;DHT22;41972;48.774;9.282;2023-04-03T07:03:05;3.80;99.90
2158;DHT22;41972;48.774;9.282;2023-04-03T07:05:30;3.90;99.90
2158;DHT22;41972;48.774;9.282;2023-04-03T07:07:56;3.90;99.90
2158;DHT22;41972;48.774;9.282;2023-04-03T07:10:22;3.90;99.90
2158;DHT22;41972;48.774;9.282;2023-04-03T07:12:47;3.90;99.90
2158;DHT22;41972;48.774;9.282;2023-04-03T07:15:13;3.70;99.90
2158;DHT22;41972;48.774;9.282;2023-04-03T07:17:39;3.90;99.90
2158;DHT22;41972;48.774;9.282;2023-04-03T07:20:06;4.20;99.90
2158;DHT22;41972;48.774;9.282;2023-04-03T07:22:32;3.70;99.90
2158;DHT22;41972;48.774;9.282;2023-04-03T07:24:58;3.70;99.90
2158;DHT22;41972;48.774;9.282;2023-04-03T07:27:28;4.00;99.90
2158;DHT22;41972;48.774;9.282;2023-04-03T07:29:53;4.20;99.90
2158;DHT22;41972;48.774;9.282;2023-04-03T07:32:21;4.20;99.90
2158;DHT22;41972;48.774;9.282;2023-04-03T07:34:46;4.30;99.90
2158;DHT22;41972;48.774;9.282;2023-04-03T07:37:12;4.60;99.90
2158;DHT22;41972;48.774;9.282;2023-04-03T07:39:38;4.50;99.90
2158;DHT22;41972;48.774;9.282;2023-04-03T07:42:03;4.10;99.90
2158;DHT22;41972;48.774;9.282;2023-04-03T07:44:29;4.10;99.90
2158;DHT22;41972;48.774;9.282;2023-04-03T07:46:55;4.40;99.90
2158;DHT22;41972;48.774;9.282;2023-04-03T07:49:21;4.10;99.90
2158;DHT22;41972;48.774;9.282;2023-04-03T07:51:49;4.20;99.90
2158;DHT22;41972;48.774;9.282;2023-04-03T07:54:15;4.10;99.90
2158;DHT22;41972;48.774;9.282;2023-04-03T07:56:40;4.10;99.90
2158;DHT22;41972;48.774;9.282;2023-04-03T07:59:08;4.20;99.90
2158;DHT22;41972;48.774;9.282;2023-04-03T08:01:34;4.40;99.90
2158;DHT22;41972;48.774;9.282;2023-04-03T08:04:00;4.40;99.90
2158;DHT22;41972;48.774;9.282;2023-04-03T08:06:26;4.30;99.90
2158;DHT22;41972;48.774;9.282;2023-04-03T08:08:52;4.40;99.90
2158;DHT22;41972;48.774;9.282;2023-04-03T08:11:18;4.70;99.90
2158;DHT22;41972;48.774;9.282;2023-04-03T08:13:44;5.00;99.90
2158;DHT22;41972;48.774;9.282;2023-04-03T08:16:12;5.10;99.90
2158;DHT22;41972;48.774;9.282;2023-04-03T08:18:38;4.60;99.90
2158;DHT22;41972;48.774;9.282;2023-04-03T08:21:09;5.20;99.90
2158;DHT22;41972;48.774;9.282;2023-04-03T08:23:36;5.00;99.90
2158;DHT22;41972;48.774;9.282;2023-04-03T08:26:15;4.70;99.90
2158;DHT22;41972;48.774;9.282;2023-04-03T08:28:41;4.90;99.90
2158;DHT22;41972;48.774;9.282;2023-04-03T08:31:11;4.70;99.90
2158;DHT22;41972;48.774;9.282;2023-04-03T08:33:37;4.70;99.90
2158;DHT22;41972;48.774;9.282;2023-04-03T08:36:04;4.80;99.90
2158;DHT22;41972;48.774;9.282;2023-04-03T08:38:30;5.10;99.90
2158;DHT22;41972;48.774;9.282;2023-04-03T08:43:40;5.10;99.90
2158;DHT22;41972;48.774;9.282;2023-04-03T08:46:14;5.00;99.90
2158;DHT22;41972;48.774;9.282;2023-04-03T08:48:42;5.10;99.90
2158;DHT22;41972;48.774;9.282;2023-04-03T08:51:16;5.60;99.90
2158;DHT22;41972;48.774;9.282;2023-04-03T08:53:59;5.50;99.90
2158;DHT22;41972;48.774;9.282;2023-04-03T08:56:30;5.60;99.90
2158;DHT22;41972;48.774;9.282;2023-04-03T08:58:58;5.50;99.90
2158;DHT22;41972;48.774;9.282;2023-04-03T09:01:29;6.00;99.90
2158;DHT22;41972;48.774;9.282;2023-04-03T09:03:56;5.60;99.90
2158;DHT22;41972;48.774;9.282;2023-04-03T09:06:25;5.60;99.90
2158;DHT22;41972;48.774;9.282;2023-04-03T09:11:58;6.10;99.90
2158;DHT22;41972;48.774;9.282;2023-04-03T09:14:50;5.80;99.90
2158;DHT22;41972;48.774;9.282;2023-04-03T09:17:41;5.70;99.90
2158;DHT22;41972;48.774;9.282;2023-04-03T09:20:17;5.40;99.90
2158;DHT22;41972;48.774;9.282;2023-04-03T09:22:46;5.40;99.90
2158;DHT22;41972;48.774;9.282;2023-04-03T09:25:17;5.40;99.90
2158;DHT22;41972;48.774;9.282;2023-04-03T09:27:43;5.90;99.90
2158;DHT22;41972;48.774;9.282;2023-04-03T09:30:18;5.30;99.90
2158;DHT22;41972;48.774;9.282;2023-04-03T09:32:45;5.60;99.90
2158;DHT22;41972;48.774;9.282;2023-04-03T09:35:28;5.60;99.90
2158;DHT22;41972;48.774;9.282;2023-04-03T09:38:00;5.60;99.90
2158;DHT22;41972;48.774;9.282;2023-04-03T09:42:53;5.40;99.90
2158;DHT22;41972;48.774;9.282;2023-04-03T09:45:23;5.10;99.90
2158;DHT22;41972;48.774;9.282;2023-04-03T09:48:07;5.10;99.90
2158;DHT22;41972;48.774;9.282;2023-04-03T09:50:34;5.20;99.90
2158;DHT22;41972;48.774;9.282;2023-04-03T09:53:06;5.10;99.90
2158;DHT22;41972;48.774;9.282;2023-04-03T09:55:33;5.50;99.90
2158;DHT22;41972;48.774;9.282;2023-04-03T10:01:01;5.30;99.90
2158;DHT22;41972;48.774;9.282;2023-04-03T10:03:33;5.40;99.90
2158;DHT22;41972;48.774;9.282;2023-04-03T10:06:02;5.30;99.90
2158;DHT22;41972;48.774;9.282;2023-04-03T10:08:34;5.40;99.90
2158;DHT22;41972;48.774;9.282;2023-04-03T10:11:16;5.60;99.90
2158;DHT22;41972;48.774;9.282;2023-04-03T10:14:03;5.70;99.90
2158;DHT22;41972;48.774;9.282;2023-04-03T10:16:38;5.60;99.90
2158;DHT22;41972;48.774;9.282;2023-04-03T10:27:43;5.40;99.90
2158;DHT22;41972;48.774;9.282;2023-04-03T10:30:22;5.70;99.90
2158;DHT22;41972;48.774;9.282;2023-04-03T10:39:12;5.60;99.90
2158;DHT22;41972;48.774;9.282;2023-04-03T10:44:20;5.70;99.90
2158;DHT22;41972;48.774;9.282;2023-04-03T10:47:21;5.80;99.90
2158;DHT22;41972;48.774;9.282;2023-04-03T10:50:02;5.80;99.90
2158;DHT22;41972;48.774;9.282;2023-04-03T10:53:01;5.30;99.90
2158;DHT22;41972;48.774;9.282;2023-04-03T10:55:40;5.30;99.90
2158;DHT22;41972;48.774;9.282;2023-04-03T10:58:18;5.40;99.90
2158;DHT22;41972;48.774;9.282;2023-04-03T11:00:48;5.70;99.90
2158;DHT22;41972;48.774;9.282;2023-04-03T11:05:49;6.30;99.90
2158;DHT22;41972;48.774;9.282;2023-04-03T11:10:56;5.90;99.90
2158;DHT22;41972;48.774;9.282;2023-04-03T11:13:37;5.70;99.90
2158;DHT22;41972;48.774;9.282;2023-04-03T11:16:06;5.60;99.90
2158;DHT22;41972;48.774;9.282;2023-04-03T11:18:43;5.60;99.90
2158;DHT22;41972;48.774;9.282;2023-04-03T11:21:34;5.90;99.90
2158;DHT22;41972;48.774;9.282;2023-04-03T11:24:05;5.80;99.90
2158;DHT22;41972;48.774;9.282;2023-04-03T11:26:40;5.80;99.90
2158;DHT22;41972;48.774;9.282;2023-04-03T11:29:13;5.80;99.90
2158;DHT22;41972;48.774;9.282;2023-04-03T11:32:07;6.10;99.90
2158;DHT22;41972;48.774;9.282;2023-04-03T11:34:41;6.10;99.90
2158;DHT22;41972;48.774;9.282;2023-04-03T11:37:33;6.00;99.90
2158;DHT22;41972;48.774;9.282;2023-04-03T11:40:08;6.30;99.90
2158;DHT22;41972;48.774;9.282;2023-04-03T11:42:55;6.60;99.90
2158;DHT22;41972;48.774;9.282;2023-04-03T11:45:35;6.20;99.90
2158;DHT22;41972;48.774;9.282;2023-04-03T11:50:39;5.90;99.90
2158;DHT22;41972;48.774;9.282;2023-04-03T12:00:48;6.10;99.90
2158;DHT22;41972;48.774;9.282;2023-04-03T12:05:49;6.30;99.90
2158;DHT22;41972;48.774;9.282;2023-04-03T12:08:26;6.50;99.90
2158;DHT22;41972;48.774;9.282;2023-04-03T12:14:03;5.80;99.90
2158;DHT22;41972;48.774;9.282;2023-04-03T12:16:32;5.60;99.90
2158;DHT22;41972;48.774;9.282;2023-04-03T12:19:46;6.00;99.90
2158;DHT22;41972;48.774;9.282;2023-04-03T12:26:46;6.00;99.90
2158;DHT22;41972;48.774;9.282;2023-04-03T12:29:22;5.80;99.90
2158;DHT22;41972;48.774;9.282;2023-04-03T12:37:56;6.20;99.90
2158;DHT22;41972;48.774;9.282;2023-04-03T12:46:14;6.00;99.90
2158;DHT22;41972;48.774;9.282;2023-04-03T12:48:50;6.10;99.90
2158;DHT22;41972;48.774;9.282;2023-04-03T12:51:28;6.50;99.90
2158;DHT22;41972;48.774;9.282;2023-04-03T12:54:03;6.90;99.90
2158;DHT22;41972;48.774;9.282;2023-04-03T12:56:31;6.60;99.90
2158;DHT22;41972;48.774;9.282;2023-04-03T12:59:24;7.10;99.90
2158;DHT22;41972;48.774;9.282;2023-04-03T13:01:55;6.90;99.90
2158;DHT22;41972;48.774;9.282;2023-04-03T13:04:21;6.60;99.90
2158;DHT22;41972;48.774;9.282;2023-04-03T13:06:47;6.70;99.90
2158;DHT22;41972;48.774;9.282;2023-04-03T13:09:30;6.70;99.90
2158;DHT22;41972;48.774;9.282;2023-04-03T13:12:15;6.60;99.90
2158;DHT22;41972;48.774;9.282;2023-04-03T13:14:52;6.80;99.90
2158;DHT22;41972;48.774;9.282;2023-04-03T13:17:18;6.50;99.90
2158;DHT22;41972;48.774;9.282;2023-04-03T13:19:45;6.10;99.90
2158;DHT22;41972;48.774;9.282;2023-04-03T13:22:39;6.10;99.90
2158;DHT22;41972;48.774;9.282;2023-04-03T13:25:13;6.30;99.90
2158;DHT22;41972;48.774;9.282;2023-04-03T13:27:40;6.40;99.90
2158;DHT22;41972;48.774;9.282;2023-04-03T13:32:51;6.70;99.90
2158;DHT22;41972;48.774;9.282;2023-04-03T13:38:05;6.90;99.90
2158;DHT22;41972;48.774;9.282;2023-04-03T13:40:31;6.50;99.90
2158;DHT22;41972;48.774;9.282;2023-04-03T13:43:02;6.60;99.90
2158;DHT22;41972;48.774;9.282;2023-04-03T13:45:30;6.40;99.90
2158;DHT22;41972;48.774;9.282;2023-04-03T13:48:16;6.30;99.90
2158;DHT22;41972;48.774;9.282;2023-04-03T13:53:17;7.40;99.90
2158;DHT22;41972;48.774;9.282;2023-04-03T13:56:16;7.20;99.90
2158;DHT22;41972;48.774;9.282;2023-04-03T13:59:38;7.10;99.90
2158;DHT22;41972;48.774;9.282;2023-04-03T14:04:20;6.90;99.90
2158;DHT22;41972;48.774;9.282;2023-04-03T14:06:47;6.30;99.90
2158;DHT22;41972;48.774;9.282;2023-04-03T14:09:14;6.70;99.90
2158;DHT22;41972;48.774;9.282;2023-04-03T14:11:40;6.70;99.90
2158;DHT22;41972;48.774;9.282;2023-04-03T14:14:13;6.30;99.90
2158;DHT22;41972;48.774;9.282;2023-04-03T14:16:42;6.30;99.90
2158;DHT22;41972;48.774;9.282;2023-04-03T14:19:16;6.50;99.90
2158;DHT22;41972;48.774;9.282;2023-04-03T14:21:43;6.30;99.90
2158;DHT22;41972;48.774;9.282;2023-04-03T14:24:08;6.40;99.90
2158;DHT22;41972;48.774;9.282;2023-04-03T14:26:34;6.60;99.90
2158;DHT22;41972;48.774;9.282;2023-04-03T14:28:59;6.90;99.90
2158;DHT22;41972;48.774;9.282;2023-04-03T14:31:25;6.80;99.90
2158;DHT22;41972;48.774;9.282;2023-04-03T14:33:51;6.40;99.90
2158;DHT22;41972;48.774;9.282;2023-04-03T14:36:21;6.70;99.90
2158;DHT22;41972;48.774;9.282;2023-04-03T14:38:48;6.30;99.90
2158;DHT22;41972;48.774;9.282;2023-04-03T14:41:17;6.50;99.90
2158;DHT22;41972;48.774;9.282;2023-04-03T14:43:43;6.80;99.90
2158;DHT22;41972;48.774;9.282;2023-04-03T14:46:14;6.50;99.90
2158;DHT22;41972;48.774;9.282;2023-04-03T14:48:40;6.50;99.90
2158;DHT22;41972;48.774;9.282;2023-04-03T14:51:05;6.60;99.90
2158;DHT22;41972;48.774;9.282;2023-04-03T14:53:31;6.60;99.90
2158;DHT22;41972;48.774;9.282;2023-04-03T14:55:57;6.30;99.90
2158;DHT22;41972;48.774;9.282;2023-04-03T14:58:23;6.20;99.90
2158;DHT22;41972;48.774;9.282;2023-04-03T15:00:49;6.30;99.90
2158;DHT22;41972;48.774;9.282;2023-04-03T15:03:17;6.40;99.90
2158;DHT22;41972;48.774;9.282;2023-04-03T15:05:48;6.60;99.90
2158;DHT22;41972;48.774;9.282;2023-04-03T15:08:25;6.40;99.90
2158;DHT22;41972;48.774;9.282;2023-04-03T15:10:52;6.70;99.90
2158;DHT22;41972;48.774;9.282;2023-04-03T15:13:18;6.50;99.90
2158;DHT22;41972;48.774;9.282;2023-04-03T15:15:45;6.70;99.90
2158;DHT22;41972;48.774;9.282;2023-04-03T15:18:17;6.50;99.90
2158;DHT22;41972;48.774;9.282;2023-04-03T15:20:43;6.30;99.90
2158;DHT22;41972;48.774;9.282;2023-04-03T15:23:13;6.00;99.90
2158;DHT22;41972;48.774;9.282;2023-04-03T15:25:38;6.00;99.90
2158;DHT22;41972;48.774;9.282;2023-04-03T15:28:05;6.00;99.90
2158;DHT22;41972;48.774;9.282;2023-04-03T15:30:31;6.00;99.90
2158;DHT22;41972;48.774;9.282;2023-04-03T15:32:57;5.90;99.90
2158;DHT22;41972;48.774;9.282;2023-04-03T15:35:22;5.90;99.90
2158;DHT22;41972;48.774;9.282;2023-04-03T15:37:48;6.10;99.90
2158;DHT22;41972;48.774;9.282;2023-04-03T15:40:14;6.30;99.90
2158;DHT22;41972;48.774;9.282;2023-04-03T15:42:40;6.40;99.90
2158;DHT22;41972;48.774;9.282;2023-04-03T15:45:07;6.30;99.90
2158;DHT22;41972;48.774;9.282;2023-04-03T15:47:33;6.40;99.90
2158;DHT22;41972;48.774;9.282;2023-04-03T15:49:58;6.40;99.90
2158;DHT22;41972;48.774;9.282;2023-04-03T15:52:24;6.40;99.90
2158;DHT22;41972;48.774;9.282;2023-04-03T15:54:49;6.50;99.90
2158;DHT22;41972;48.774;9.282;2023-04-03T15:57:15;6.60;99.90
2158;DHT22;41972;48.774;9.282;2023-04-03T15:59:40;6.60;99.90
2158;DHT22;41972;48.774;9.282;2023-04-03T16:02:08;6.60;99.90
2158;DHT22;41972;48.774;9.282;2023-04-03T16:04:37;6.40;99.90
2158;DHT22;41972;48.774;9.282;2023-04-03T16:07:04;6.40;99.90
2158;DHT22;41972;48.774;9.282;2023-04-03T16:09:31;6.40;99.90
2158;DHT22;41972;48.774;9.282;2023-04-03T16:11:57;6.40;99.90
2158;DHT22;41972;48.774;9.282;2023-04-03T16:14:22;6.30;99.90
2158;DHT22;41972;48.774;9.282;2023-04-03T16:16:48;6.00;99.90
2158;DHT22;41972;48.774;9.282;2023-04-03T16:19:14;5.90;99.90
2158;DHT22;41972;48.774;9.282;2023-04-03T16:21:39;6.00;99.90
2158;DHT22;41972;48.774;9.282;2023-04-03T16:24:05;6.00;99.90
2158;DHT22;41972;48.774;9.282;2023-04-03T16:26:31;6.10;99.90
2158;DHT22;41972;48.774;9.282;2023-04-03T16:28:57;6.00;99.90
2158;DHT22;41972;48.774;9.282;2023-04-03T16:31:24;6.20;99.90
2158;DHT22;41972;48.774;9.282;2023-04-03T16:33:50;6.20;99.90
2158;DHT22;41972;48.774;9.282;2023-04-03T16:36:16;6.10;99.90
2158;DHT22;41972;48.774;9.282;2023-04-03T16:38:41;6.10;99.90
2158;DHT22;41972;48.774;9.282;2023-04-03T16:41:07;6.00;99.90
2158;DHT22;41972;48.774;9.282;2023-04-03T16:43:33;6.10;99.90
2158;DHT22;41972;48.774;9.282;2023-04-03T16:45:58;6.00;99.90
2158;DHT22;41972;48.774;9.282;2023-04-03T16:48:24;6.00;99.90
2158;DHT22;41972;48.774;9.282;2023-04-03T16:50:50;6.00;99.90
2158;DHT22;41972;48.774;9.282;2023-04-03T16:53:22;5.90;99.90
2158;DHT22;41972;48.774;9.282;2023-04-03T16:55:48;6.10;99.90
2158;DHT22;41972;48.774;9.282;2023-04-03T16:58:13;6.10;99.90
2158;DHT22;41972;48.774;9.282;2023-04-03T17:00:40;6.10;99.90
2158;DHT22;41972;48.774;9.282;2023-04-03T17:03:05;5.90;99.90
2158;DHT22;41972;48.774;9.282;2023-04-03T17:05:31;6.00;99.90
2158;DHT22;41972;48.774;9.282;2023-04-03T17:07:57;6.00;99.90
2158;DHT22;41972;48.774;9.282;2023-04-03T17:10:23;6.00;99.90
2158;DHT22;41972;48.774;9.282;2023-04-03T17:12:48;6.00;99.90
2158;DHT22;41972;48.774;9.282;2023-04-03T17:15:14;6.10;99.90
2158;DHT22;41972;48.774;9.282;2023-04-03T17:17:40;6.00;99.90
2158;DHT22;41972;48.774;9.282;2023-04-03T17:20:06;5.90;99.90
2158;DHT22;41972;48.774;9.282;2023-04-03T17:22:32;5.90;99.90
2158;DHT22;41972;48.774;9.282;2023-04-03T17:24:58;5.80;99.90
2158;DHT22;41972;48.774;9.282;2023-04-03T17:27:24;5.70;99.90
2158;DHT22;41972;48.774;9.282;2023-04-03T17:29:50;5.70;99.90
2158;DHT22;41972;48.774;9.282;2023-04-03T17:32:15;5.80;99.90
2158;DHT22;41972;48.774;9.282;2023-04-03T17:34:41;5.70;99.90
2158;DHT22;41972;48.774;9.282;2023-04-03T17:37:06;5.70;99.90
2158;DHT22;41972;48.774;9.282;2023-04-03T17:39:32;5.70;99.90